sensor_id;sensor_type;location;lat;lon;timestamp;temperature;humidity
10692;DHT22;5396;50.950;6.988;2023-03-02T00:00:34;2.00;99.90
10692;DHT22;5396;50.950;6.988;2023-03-02T00:03:00;1.90;99.90
10692;DHT22;5396;50.950;6.988;2023-03-02T00:05:27;1.80;99.90
10692;DHT22;5396;50.950;6.988;2023-03-02T00:07:54;1.80;99.90
10692;DHT22;5396;50.950;6.988;2023-03-02T00:10:19;1.70;99.90
10692;DHT22;5396;50.950;6.988;2023-03-02T00:12:45;1.70;99.90
10692;DHT22;5396;50.950;6.988;2023-03-02T00:15:11;1.70;99.90
10692;DHT22;5396;50.950;6.988;2023-03-02T00:17:36;1.70;99.90
10692;DHT22;5396;50.950;6.988;2023-03-02T00:20:03;1.70;99.90
10692;DHT22;5396;50.950;6.988;2023-03-02T00:22:34;1.70;99.90
10692;DHT22;5396;50.950;6.988;2023-03-02T00:25:01;1.70;99.90
10692;DHT22;5396;50.950;6.988;2023-03-02T00:27:27;1.60;99.90
10692;DHT22;5396;50.950;6.988;2023-03-02T00:29:55;1.60;99.90
10692;DHT22;5396;50.950;6.988;2023-03-02T00:32:20;1.60;99.90
10692;DHT22;5396;50.950;6.988;2023-03-02T00:34:46;1.50;99.90
10692;DHT22;5396;50.950;6.988;2023-03-02T00:37:12;1.50;99.90
10692;DHT22;5396;50.950;6.988;2023-03-02T00:39:37;1.50;99.90
10692;DHT22;5396;50.950;6.988;2023-03-02T00:42:03;1.50;99.90
10692;DHT22;5396;50.950;6.988;2023-03-02T00:44:28;1.50;99.90
10692;DHT22;5396;50.950;6.988;2023-03-02T00:46:54;1.50;99.90
10692;DHT22;5396;50.950;6.988;2023-03-02T00:49:19;1.40;99.90
10692;DHT22;5396;50.950;6.988;2023-03-02T00:51:45;1.50;99.90
10692;DHT22;5396;50.950;6.988;2023-03-02T00:54:11;1.40;99.90
10692;DHT22;5396;50.950;6.988;2023-03-02T00:56:36;1.30;99.90
10692;DHT22;5396;50.950;6.988;2023-03-02T00:59:07;1.30;99.90
10692;DHT22;5396;50.950;6.988;2023-03-02T01:01:36;1.20;99.90
10692;DHT22;5396;50.950;6.988;2023-03-02T01:04:02;1.20;99.90
10692;DHT22;5396;50.950;6.988;2023-03-02T01:06:27;1.20;99.90
10692;DHT22;5396;50.950;6.988;2023-03-02T01:08:53;1.10;99.90
10692;DHT22;5396;50.950;6.988;2023-03-02T01:11:20;1.10;99.90
10692;DHT22;5396;50.950;6.988;2023-03-02T01:13:47;1.10;99.90
10692;DHT22;5396;50.950;6.988;2023-03-02T01:16:13;1.10;99.90
10692;DHT22;5396;50.950;6.988;2023-03-02T01:18:39;1.10;99.90
10692;DHT22;5396;50.950;6.988;2023-03-02T01:21:08;1.00;99.90
10692;DHT22;5396;50.950;6.988;2023-03-02T01:23:34;1.00;99.90
10692;DHT22;5396;50.950;6.988;2023-03-02T01:26:00;1.00;99.90
10692;DHT22;5396;50.950;6.988;2023-03-02T01:28:26;1.00;99.90
10692;DHT22;5396;50.950;6.988;2023-03-02T01:30:52;1.00;99.90
10692;DHT22;5396;50.950;6.988;2023-03-02T01:33:18;0.90;99.90
10692;DHT22;5396;50.950;6.988;2023-03-02T01:35:45;0.80;99.90
10692;DHT22;5396;50.950;6.988;2023-03-02T01:38:11;0.90;99.90
10692;DHT22;5396;50.950;6.988;2023-03-02T01:40:37;0.80;99.90
10692;DHT22;5396;50.950;6.988;2023-03-02T01:43:05;0.80;99.90
10692;DHT22;5396;50.950;6.988;2023-03-02T01:46:00;0.70;99.90
10692;DHT22;5396;50.950;6.988;2023-03-02T01:48:53;0.70;99.90
10692;DHT22;5396;50.950;6.988;2023-03-02T01:51:24;0.70;99.90
10692;DHT22;5396;50.950;6.988;2023-03-02T01:53:53;0.80;99.90
10692;DHT22;5396;50.950;6.988;2023-03-02T01:56:23;0.80;99.90
10692;DHT22;5396;50.950;6.988;2023-03-02T01:58:52;0.70;99.90
10692;DHT22;5396;50.950;6.988;2023-03-02T02:01:18;0.70;99.90
10692;DHT22;5396;50.950;6.988;2023-03-02T02:03:48;0.60;99.90
10692;DHT22;5396;50.950;6.988;2023-03-02T02:08:47;0.70;99.90
10692;DHT22;5396;50.950;6.988;2023-03-02T02:11:13;0.70;99.90
10692;DHT22;5396;50.950;6.988;2023-03-02T02:13:39;0.60;99.90
10692;DHT22;5396;50.950;6.988;2023-03-02T02:16:06;0.60;99.90
10692;DHT22;5396;50.950;6.988;2023-03-02T02:18:35;0.60;99.90
10692;DHT22;5396;50.950;6.988;2023-03-02T02:21:02;0.60;99.90
10692;DHT22;5396;50.950;6.988;2023-03-02T02:23:41;0.60;99.90
10692;DHT22;5396;50.950;6.988;2023-03-02T02:28:41;0.60;99.90
10692;DHT22;5396;50.950;6.988;2023-03-02T02:31:21;0.60;99.90
10692;DHT22;5396;50.950;6.988;2023-03-02T02:34:02;0.50;99.90
10692;DHT22;5396;50.950;6.988;2023-03-02T02:36:32;0.40;99.90
10692;DHT22;5396;50.950;6.988;2023-03-02T02:39:02;0.30;99.90
10692;DHT22;5396;50.950;6.988;2023-03-02T02:41:32;0.40;99.90
10692;DHT22;5396;50.950;6.988;2023-03-02T02:43:58;0.40;99.90
10692;DHT22;5396;50.950;6.988;2023-03-02T02:46:24;0.40;99.90
10692;DHT22;5396;50.950;6.988;2023-03-02T02:48:51;0.30;99.90
10692;DHT22;5396;50.950;6.988;2023-03-02T02:51:22;0.30;99.90
10692;DHT22;5396;50.950;6.988;2023-03-02T02:54:01;0.30;99.90
10692;DHT22;5396;50.950;6.988;2023-03-02T02:56:33;0.20;99.90
10692;DHT22;5396;50.950;6.988;2023-03-02T02:59:15;0.30;99.90
10692;DHT22;5396;50.950;6.988;2023-03-02T03:01:42;0.40;99.90
10692;DHT22;5396;50.950;6.988;2023-03-02T03:04:12;0.30;99.90
10692;DHT22;5396;50.950;6.988;2023-03-02T03:06:52;0.30;99.90
10692;DHT22;5396;50.950;6.988;2023-03-02T03:09:18;0.20;99.90
10692;DHT22;5396;50.950;6.988;2023-03-02T03:11:46;0.20;99.90
10692;DHT22;5396;50.950;6.988;2023-03-02T03:14:21;0.20;99.90
10692;DHT22;5396;50.950;6.988;2023-03-02T03:16:49;0.20;99.90
10692;DHT22;5396;50.950;6.988;2023-03-02T03:19:16;0.20;99.90
10692;DHT22;5396;50.950;6.988;2023-03-02T03:21:43;0.20;99.90
10692;DHT22;5396;50.950;6.988;2023-03-02T03:24:10;0.30;99.90
10692;DHT22;5396;50.950;6.988;2023-03-02T03:26:35;0.30;99.90
10692;DHT22;5396;50.950;6.988;2023-03-02T03:29:02;0.40;99.90
10692;DHT22;5396;50.950;6.988;2023-03-02T03:31:28;0.40;99.90
10692;DHT22;5396;50.950;6.988;2023-03-02T03:33:55;0.40;99.90
10692;DHT22;5396;50.950;6.988;2023-03-02T03:36:21;0.30;99.90
10692;DHT22;5396;50.950;6.988;2023-03-02T03:38:47;0.30;99.90
10692;DHT22;5396;50.950;6.988;2023-03-02T03:41:14;0.30;99.90
10692;DHT22;5396;50.950;6.988;2023-03-02T03:43:40;0.20;99.90
10692;DHT22;5396;50.950;6.988;2023-03-02T03:46:05;0.20;99.90
10692;DHT22;5396;50.950;6.988;2023-03-02T03:48:31;0.10;99.90
10692;DHT22;5396;50.950;6.988;2023-03-02T03:50:58;0.10;99.90
10692;DHT22;5396;50.950;6.988;2023-03-02T03:53:25;0.10;99.90
10692;DHT22;5396;50.950;6.988;2023-03-02T03:55:50;0.00;99.90
10692;DHT22;5396;50.950;6.988;2023-03-02T03:58:17;0.00;99.90
10692;DHT22;5396;50.950;6.988;2023-03-02T04:00:43;0.10;99.90
10692;DHT22;5396;50.950;6.988;2023-03-02T04:03:14;0.10;99.90
10692;DHT22;5396;50.950;6.988;2023-03-02T04:05:40;0.10;99.90
10692;DHT22;5396;50.950;6.988;2023-03-02T04:08:06;0.00;99.90
10692;DHT22;5396;50.950;6.988;2023-03-02T04:10:33;0.00;99.90
10692;DHT22;5396;50.950;6.988;2023-03-02T04:12:58;0.10;99.90
10692;DHT22;5396;50.950;6.988;2023-03-02T04:15:24;0.10;99.90
10692;DHT22;5396;50.950;6.988;2023-03-02T04:17:50;0.00;99.90
10692;DHT22;5396;50.950;6.988;2023-03-02T04:20:17;0.00;99.90
10692;DHT22;5396;50.950;6.988;2023-03-02T04:22:45;0.00;99.90
10692;DHT22;5396;50.950;6.988;2023-03-02T04:25:11;-0.10;99.90
10692;DHT22;5396;50.950;6.988;2023-03-02T04:27:39;0.00;99.90
10692;DHT22;5396;50.950;6.988;2023-03-02T04:30:06;0.00;99.90
10692;DHT22;5396;50.950;6.988;2023-03-02T04:32:32;0.00;99.90
10692;DHT22;5396;50.950;6.988;2023-03-02T04:34:57;0.00;99.90
10692;DHT22;5396;50.950;6.988;2023-03-02T04:37:23;0.00;99.90
10692;DHT22;5396;50.950;6.988;2023-03-02T04:39:48;0.00;99.90
10692;DHT22;5396;50.950;6.988;2023-03-02T04:42:17;-0.10;99.90
10692;DHT22;5396;50.950;6.988;2023-03-02T04:44:43;0.00;99.90
10692;DHT22;5396;50.950;6.988;2023-03-02T04:47:09;-0.10;99.90
10692;DHT22;5396;50.950;6.988;2023-03-02T04:49:35;-0.10;99.90
10692;DHT22;5396;50.950;6.988;2023-03-02T04:52:01;-0.20;99.90
10692;DHT22;5396;50.950;6.988;2023-03-02T04:54:27;-0.20;99.90
10692;DHT22;5396;50.950;6.988;2023-03-02T04:56:53;-0.20;99.90
10692;DHT22;5396;50.950;6.988;2023-03-02T04:59:21;-0.20;99.90
10692;DHT22;5396;50.950;6.988;2023-03-02T05:01:48;-0.20;99.90
10692;DHT22;5396;50.950;6.988;2023-03-02T05:04:14;-0.20;99.90
10692;DHT22;5396;50.950;6.988;2023-03-02T05:06:40;-0.30;99.90
10692;DHT22;5396;50.950;6.988;2023-03-02T05:09:05;-0.30;99.90
10692;DHT22;5396;50.950;6.988;2023-03-02T05:11:31;-0.30;99.90
10692;DHT22;5396;50.950;6.988;2023-03-02T05:14:00;-0.30;99.90
10692;DHT22;5396;50.950;6.988;2023-03-02T05:16:28;-0.30;99.90
10692;DHT22;5396;50.950;6.988;2023-03-02T05:18:54;-0.40;99.90
10692;DHT22;5396;50.950;6.988;2023-03-02T05:21:20;-0.30;99.90
10692;DHT22;5396;50.950;6.988;2023-03-02T05:23:46;-0.30;99.90
10692;DHT22;5396;50.950;6.988;2023-03-02T05:26:12;-0.30;99.90
10692;DHT22;5396;50.950;6.988;2023-03-02T05:28:39;-0.30;99.90
10692;DHT22;5396;50.950;6.988;2023-03-02T05:31:05;-0.30;99.90
10692;DHT22;5396;50.950;6.988;2023-03-02T05:33:31;-0.30;99.90
10692;DHT22;5396;50.950;6.988;2023-03-02T05:35:57;-0.40;99.90
10692;DHT22;5396;50.950;6.988;2023-03-02T05:38:23;-0.30;99.90
10692;DHT22;5396;50.950;6.988;2023-03-02T05:40:49;-0.30;99.90
10692;DHT22;5396;50.950;6.988;2023-03-02T05:43:17;-0.30;99.90
10692;DHT22;5396;50.950;6.988;2023-03-02T05:45:44;-0.30;99.90
10692;DHT22;5396;50.950;6.988;2023-03-02T05:48:11;-0.30;99.90
10692;DHT22;5396;50.950;6.988;2023-03-02T05:50:37;-0.30;99.90
10692;DHT22;5396;50.950;6.988;2023-03-02T05:53:03;-0.30;99.90
10692;DHT22;5396;50.950;6.988;2023-03-02T05:55:29;-0.30;99.90
10692;DHT22;5396;50.950;6.988;2023-03-02T05:57:54;-0.40;99.90
10692;DHT22;5396;50.950;6.988;2023-03-02T06:00:20;-0.40;99.90
10692;DHT22;5396;50.950;6.988;2023-03-02T06:02:46;-0.50;99.90
10692;DHT22;5396;50.950;6.988;2023-03-02T06:05:15;-0.50;99.90
10692;DHT22;5396;50.950;6.988;2023-03-02T06:07:43;-0.40;99.90
10692;DHT22;5396;50.950;6.988;2023-03-02T06:10:10;-0.50;99.90
10692;DHT22;5396;50.950;6.988;2023-03-02T06:12:37;-0.40;99.90
10692;DHT22;5396;50.950;6.988;2023-03-02T06:15:04;-0.40;99.90
10692;DHT22;5396;50.950;6.988;2023-03-02T06:17:30;-0.30;99.90
10692;DHT22;5396;50.950;6.988;2023-03-02T06:19:56;-0.30;99.90
10692;DHT22;5396;50.950;6.988;2023-03-02T06:22:22;-0.30;99.90
10692;DHT22;5396;50.950;6.988;2023-03-02T06:24:47;-0.20;99.90
10692;DHT22;5396;50.950;6.988;2023-03-02T06:27:13;-0.20;99.90
10692;DHT22;5396;50.950;6.988;2023-03-02T06:29:39;-0.10;99.90
10692;DHT22;5396;50.950;6.988;2023-03-02T06:32:04;-0.10;99.90
10692;DHT22;5396;50.950;6.988;2023-03-02T06:34:30;0.00;99.90
10692;DHT22;5396;50.950;6.988;2023-03-02T06:36:56;0.00;99.90
10692;DHT22;5396;50.950;6.988;2023-03-02T06:39:22;0.00;99.90
10692;DHT22;5396;50.950;6.988;2023-03-02T06:41:48;0.00;99.90
10692;DHT22;5396;50.950;6.988;2023-03-02T06:44:15;0.00;99.90
10692;DHT22;5396;50.950;6.988;2023-03-02T06:46:41;0.00;99.90
10692;DHT22;5396;50.950;6.988;2023-03-02T06:49:08;0.00;99.90
10692;DHT22;5396;50.950;6.988;2023-03-02T06:51:34;0.10;99.90
10692;DHT22;5396;50.950;6.988;2023-03-02T06:54:00;0.10;99.90
10692;DHT22;5396;50.950;6.988;2023-03-02T06:56:26;0.20;99.90
10692;DHT22;5396;50.950;6.988;2023-03-02T06:58:52;0.30;99.90
10692;DHT22;5396;50.950;6.988;2023-03-02T07:01:17;0.40;99.90
10692;DHT22;5396;50.950;6.988;2023-03-02T07:03:43;0.50;99.90
10692;DHT22;5396;50.950;6.988;2023-03-02T07:06:11;0.60;99.90
10692;DHT22;5396;50.950;6.988;2023-03-02T07:08:37;0.70;99.90
10692;DHT22;5396;50.950;6.988;2023-03-02T07:11:07;0.80;99.90
10692;DHT22;5396;50.950;6.988;2023-03-02T07:13:33;0.80;99.90
10692;DHT22;5396;50.950;6.988;2023-03-02T07:15:59;0.90;99.90
10692;DHT22;5396;50.950;6.988;2023-03-02T07:18:24;0.90;99.90
10692;DHT22;5396;50.950;6.988;2023-03-02T07:20:50;1.00;99.90
10692;DHT22;5396;50.950;6.988;2023-03-02T07:23:15;0.90;99.90
10692;DHT22;5396;50.950;6.988;2023-03-02T07:25:41;1.00;99.90
10692;DHT22;5396;50.950;6.988;2023-03-02T07:28:07;0.90;99.90
10692;DHT22;5396;50.950;6.988;2023-03-02T07:30:32;0.90;99.90
10692;DHT22;5396;50.950;6.988;2023-03-02T07:32:58;0.90;99.90
10692;DHT22;5396;50.950;6.988;2023-03-02T07:35:23;0.90;99.90
10692;DHT22;5396;50.950;6.988;2023-03-02T07:37:51;1.00;99.90
10692;DHT22;5396;50.950;6.988;2023-03-02T07:40:17;1.10;99.90
10692;DHT22;5396;50.950;6.988;2023-03-02T07:42:42;1.20;99.90
10692;DHT22;5396;50.950;6.988;2023-03-02T07:45:10;1.30;99.90
10692;DHT22;5396;50.950;6.988;2023-03-02T07:47:35;1.40;99.90
10692;DHT22;5396;50.950;6.988;2023-03-02T07:50:01;1.50;99.90
10692;DHT22;5396;50.950;6.988;2023-03-02T07:52:28;1.60;99.90
10692;DHT22;5396;50.950;6.988;2023-03-02T07:54:56;1.70;99.90
10692;DHT22;5396;50.950;6.988;2023-03-02T07:57:21;1.70;99.90
10692;DHT22;5396;50.950;6.988;2023-03-02T07:59:47;1.80;99.90
10692;DHT22;5396;50.950;6.988;2023-03-02T08:02:15;1.90;99.90
10692;DHT22;5396;50.950;6.988;2023-03-02T08:04:41;1.90;99.90
10692;DHT22;5396;50.950;6.988;2023-03-02T08:07:07;1.90;99.90
10692;DHT22;5396;50.950;6.988;2023-03-02T08:09:33;2.00;99.90
10692;DHT22;5396;50.950;6.988;2023-03-02T08:11:59;2.00;99.90
10692;DHT22;5396;50.950;6.988;2023-03-02T08:14:24;2.10;99.90
10692;DHT22;5396;50.950;6.988;2023-03-02T08:16:50;2.20;99.90
10692;DHT22;5396;50.950;6.988;2023-03-02T08:19:17;2.30;99.90
10692;DHT22;5396;50.950;6.988;2023-03-02T08:21:42;2.30;99.90
10692;DHT22;5396;50.950;6.988;2023-03-02T08:24:09;2.40;99.90
10692;DHT22;5396;50.950;6.988;2023-03-02T08:26:34;2.40;99.90
10692;DHT22;5396;50.950;6.988;2023-03-02T08:29:00;2.40;99.90
10692;DHT22;5396;50.950;6.988;2023-03-02T08:31:26;2.50;99.90
10692;DHT22;5396;50.950;6.988;2023-03-02T08:33:52;2.50;99.90
10692;DHT22;5396;50.950;6.988;2023-03-02T08:36:18;2.60;99.90
10692;DHT22;5396;50.950;6.988;2023-03-02T08:38:45;2.60;99.90
10692;DHT22;5396;50.950;6.988;2023-03-02T08:41:17;2.70;99.90
10692;DHT22;5396;50.950;6.988;2023-03-02T08:43:42;2.70;99.90
10692;DHT22;5396;50.950;6.988;2023-03-02T08:46:10;2.80;99.90
10692;DHT22;5396;50.950;6.988;2023-03-02T08:48:36;2.90;99.90
10692;DHT22;5396;50.950;6.988;2023-03-02T08:51:08;2.90;99.90
10692;DHT22;5396;50.950;6.988;2023-03-02T08:53:36;3.10;99.90
10692;DHT22;5396;50.950;6.988;2023-03-02T08:56:03;3.10;99.90
10692;DHT22;5396;50.950;6.988;2023-03-02T08:58:31;3.20;99.90
10692;DHT22;5396;50.950;6.988;2023-03-02T09:00:57;3.30;99.90
10692;DHT22;5396;50.950;6.988;2023-03-02T09:03:22;3.30;99.90
10692;DHT22;5396;50.950;6.988;2023-03-02T09:05:48;3.30;99.90
10692;DHT22;5396;50.950;6.988;2023-03-02T09:08:14;3.40;99.90
10692;DHT22;5396;50.950;6.988;2023-03-02T09:10:39;3.50;99.90
10692;DHT22;5396;50.950;6.988;2023-03-02T09:13:05;3.60;99.90
10692;DHT22;5396;50.950;6.988;2023-03-02T09:15:31;3.70;99.90
10692;DHT22;5396;50.950;6.988;2023-03-02T09:17:57;3.80;99.90
10692;DHT22;5396;50.950;6.988;2023-03-02T09:20:22;3.80;99.90
10692;DHT22;5396;50.950;6.988;2023-03-02T09:22:48;3.90;99.90
10692;DHT22;5396;50.950;6.988;2023-03-02T09:25:16;4.00;99.90
10692;DHT22;5396;50.950;6.988;2023-03-02T09:27:44;4.10;99.90
10692;DHT22;5396;50.950;6.988;2023-03-02T09:30:10;4.20;99.90
10692;DHT22;5396;50.950;6.988;2023-03-02T09:32:36;4.20;99.90
10692;DHT22;5396;50.950;6.988;2023-03-02T09:35:02;4.30;99.90
10692;DHT22;5396;50.950;6.988;2023-03-02T09:37:28;4.30;99.90
10692;DHT22;5396;50.950;6.988;2023-03-02T09:39:53;4.40;99.90
10692;DHT22;5396;50.950;6.988;2023-03-02T09:51:21;4.70;99.90
10692;DHT22;5396;50.950;6.988;2023-03-02T09:54:08;4.70;99.90
10692;DHT22;5396;50.950;6.988;2023-03-02T09:56:38;4.90;99.90
10692;DHT22;5396;50.950;6.988;2023-03-02T09:59:25;5.00;99.90
10692;DHT22;5396;50.950;6.988;2023-03-02T10:04:44;5.10;99.90
10692;DHT22;5396;50.950;6.988;2023-03-02T10:07:28;5.20;99.90
10692;DHT22;5396;50.950;6.988;2023-03-02T10:09:58;5.20;99.90
10692;DHT22;5396;50.950;6.988;2023-03-02T10:12:42;5.30;99.90
10692;DHT22;5396;50.950;6.988;2023-03-02T10:15:25;5.40;99.90
10692;DHT22;5396;50.950;6.988;2023-03-02T10:18:15;5.50;99.90
10692;DHT22;5396;50.950;6.988;2023-03-02T10:21:35;5.60;99.90
10692;DHT22;5396;50.950;6.988;2023-03-02T10:26:57;5.90;99.90
10692;DHT22;5396;50.950;6.988;2023-03-02T10:29:50;6.00;99.90
10692;DHT22;5396;50.950;6.988;2023-03-02T10:32:26;6.20;99.90
10692;DHT22;5396;50.950;6.988;2023-03-02T10:34:53;6.30;99.90
10692;DHT22;5396;50.950;6.988;2023-03-02T10:37:25;6.40;99.90
10692;DHT22;5396;50.950;6.988;2023-03-02T10:39:53;6.50;99.90
10692;DHT22;5396;50.950;6.988;2023-03-02T10:42:29;6.50;99.90
10692;DHT22;5396;50.950;6.988;2023-03-02T10:47:45;6.70;99.90
10692;DHT22;5396;50.950;6.988;2023-03-02T10:50:21;6.70;99.90
10692;DHT22;5396;50.950;6.988;2023-03-02T10:52:50;6.80;99.90
10692;DHT22;5396;50.950;6.988;2023-03-02T10:55:16;6.80;99.90
10692;DHT22;5396;50.950;6.988;2023-03-02T10:57:43;6.90;99.90
10692;DHT22;5396;50.950;6.988;2023-03-02T11:02:36;7.10;99.90
10692;DHT22;5396;50.950;6.988;2023-03-02T11:05:35;7.20;99.90
10692;DHT22;5396;50.950;6.988;2023-03-02T11:08:08;7.30;99.90
10692;DHT22;5396;50.950;6.988;2023-03-02T11:11:00;7.40;99.90
10692;DHT22;5396;50.950;6.988;2023-03-02T11:13:33;7.40;99.90
10692;DHT22;5396;50.950;6.988;2023-03-02T11:16:01;7.50;99.90
10692;DHT22;5396;50.950;6.988;2023-03-02T11:18:40;7.60;99.90
10692;DHT22;5396;50.950;6.988;2023-03-02T11:21:32;7.70;99.90
10692;DHT22;5396;50.950;6.988;2023-03-02T11:26:43;7.90;99.90
10692;DHT22;5396;50.950;6.988;2023-03-02T11:32:12;8.10;99.90
10692;DHT22;5396;50.950;6.988;2023-03-02T11:34:42;8.20;99.90
10692;DHT22;5396;50.950;6.988;2023-03-02T11:40:25;8.20;99.90
10692;DHT22;5396;50.950;6.988;2023-03-02T11:42:55;8.30;99.90
10692;DHT22;5396;50.950;6.988;2023-03-02T11:45:31;8.30;99.90
10692;DHT22;5396;50.950;6.988;2023-03-02T11:50:32;8.50;99.90
10692;DHT22;5396;50.950;6.988;2023-03-02T11:53:03;8.50;99.90
10692;DHT22;5396;50.950;6.988;2023-03-02T11:55:34;8.60;99.90
10692;DHT22;5396;50.950;6.988;2023-03-02T11:58:04;8.70;99.90
10692;DHT22;5396;50.950;6.988;2023-03-02T12:00:35;8.90;99.90
10692;DHT22;5396;50.950;6.988;2023-03-02T12:06:25;9.10;99.90
10692;DHT22;5396;50.950;6.988;2023-03-02T12:09:29;9.10;99.90
10692;DHT22;5396;50.950;6.988;2023-03-02T12:16:19;9.30;99.90
10692;DHT22;5396;50.950;6.988;2023-03-02T12:18:47;9.40;99.90
10692;DHT22;5396;50.950;6.988;2023-03-02T12:21:17;9.50;99.90
10692;DHT22;5396;50.950;6.988;2023-03-02T12:29:19;9.80;99.90
10692;DHT22;5396;50.950;6.988;2023-03-02T12:31:50;9.90;99.90
10692;DHT22;5396;50.950;6.988;2023-03-02T12:36:48;10.10;99.90
10692;DHT22;5396;50.950;6.988;2023-03-02T12:45:18;10.30;99.90
10692;DHT22;5396;50.950;6.988;2023-03-02T12:47:48;10.40;99.90
10692;DHT22;5396;50.950;6.988;2023-03-02T12:50:23;10.40;99.90
10692;DHT22;5396;50.950;6.988;2023-03-02T12:53:01;10.40;99.90
10692;DHT22;5396;50.950;6.988;2023-03-02T12:55:27;10.40;99.90
10692;DHT22;5396;50.950;6.988;2023-03-02T12:57:55;10.50;99.90
10692;DHT22;5396;50.950;6.988;2023-03-02T13:00:28;10.60;99.90
10692;DHT22;5396;50.950;6.988;2023-03-02T13:02:56;10.50;99.90
10692;DHT22;5396;50.950;6.988;2023-03-02T13:05:24;10.50;99.90
10692;DHT22;5396;50.950;6.988;2023-03-02T13:08:15;10.60;99.90
10692;DHT22;5396;50.950;6.988;2023-03-02T13:10:52;10.70;99.90
10692;DHT22;5396;50.950;6.988;2023-03-02T13:13:25;10.80;99.90
10692;DHT22;5396;50.950;6.988;2023-03-02T13:16:00;10.90;99.90
10692;DHT22;5396;50.950;6.988;2023-03-02T13:18:29;10.90;99.90
10692;DHT22;5396;50.950;6.988;2023-03-02T13:20:59;11.00;99.90
10692;DHT22;5396;50.950;6.988;2023-03-02T13:23:26;11.10;99.90
10692;DHT22;5396;50.950;6.988;2023-03-02T13:25:58;11.20;99.90
10692;DHT22;5396;50.950;6.988;2023-03-02T13:33:33;11.30;99.90
10692;DHT22;5396;50.950;6.988;2023-03-02T13:36:00;11.70;99.90
10692;DHT22;5396;50.950;6.988;2023-03-02T13:38:31;13.50;99.90
10692;DHT22;5396;50.950;6.988;2023-03-02T13:40:58;15.20;99.90
10692;DHT22;5396;50.950;6.988;2023-03-02T13:45:58;17.70;99.90
10692;DHT22;5396;50.950;6.988;2023-03-02T13:48:24;18.70;99.90
10692;DHT22;5396;50.950;6.988;2023-03-02T13:50:56;19.30;99.90
10692;DHT22;5396;50.950;6.988;2023-03-02T13:53:22;19.80;99.90
10692;DHT22;5396;50.950;6.988;2023-03-02T13:55:49;20.20;99.90
10692;DHT22;5396;50.950;6.988;2023-03-02T13:58:16;20.60;99.90
10692;DHT22;5396;50.950;6.988;2023-03-02T14:00:43;21.00;99.90
10692;DHT22;5396;50.950;6.988;2023-03-02T14:03:27;20.30;99.90
10692;DHT22;5396;50.950;6.988;2023-03-02T14:05:54;20.60;99.90
10692;DHT22;5396;50.950;6.988;2023-03-02T14:08:20;20.90;99.90
10692;DHT22;5396;50.950;6.988;2023-03-02T14:10:47;21.10;99.90
10692;DHT22;5396;50.950;6.988;2023-03-02T14:13:16;21.60;99.90
10692;DHT22;5396;50.950;6.988;2023-03-02T14:15:49;21.40;99.90
10692;DHT22;5396;50.950;6.988;2023-03-02T14:20:52;22.00;99.90
10692;DHT22;5396;50.950;6.988;2023-03-02T14:23:17;22.30;99.90
10692;DHT22;5396;50.950;6.988;2023-03-02T14:25:43;22.70;99.90
10692;DHT22;5396;50.950;6.988;2023-03-02T14:28:21;22.60;99.90
10692;DHT22;5396;50.950;6.988;2023-03-02T14:30:51;22.20;99.90
10692;DHT22;5396;50.950;6.988;2023-03-02T14:33:19;21.80;99.90
10692;DHT22;5396;50.950;6.988;2023-03-02T14:35:45;21.10;99.90
10692;DHT22;5396;50.950;6.988;2023-03-02T14:38:11;20.60;99.90
10692;DHT22;5396;50.950;6.988;2023-03-02T14:40:37;19.70;99.90
10692;DHT22;5396;50.950;6.988;2023-03-02T14:43:03;19.30;99.90
10692;DHT22;5396;50.950;6.988;2023-03-02T14:45:28;19.20;99.90
10692;DHT22;5396;50.950;6.988;2023-03-02T14:47:54;18.40;99.90
10692;DHT22;5396;50.950;6.988;2023-03-02T14:50:20;18.30;99.90
10692;DHT22;5396;50.950;6.988;2023-03-02T14:52:50;17.80;99.90
10692;DHT22;5396;50.950;6.988;2023-03-02T14:55:29;17.80;99.90
10692;DHT22;5396;50.950;6.988;2023-03-02T14:58:03;17.90;99.90
10692;DHT22;5396;50.950;6.988;2023-03-02T15:00:30;17.90;99.90
10692;DHT22;5396;50.950;6.988;2023-03-02T15:02:56;17.60;99.90
10692;DHT22;5396;50.950;6.988;2023-03-02T15:05:22;17.10;99.90
10692;DHT22;5396;50.950;6.988;2023-03-02T15:07:48;16.70;99.90
10692;DHT22;5396;50.950;6.988;2023-03-02T15:10:20;16.80;99.90
10692;DHT22;5396;50.950;6.988;2023-03-02T15:12:46;16.40;99.90
10692;DHT22;5396;50.950;6.988;2023-03-02T15:15:12;16.10;99.90
10692;DHT22;5396;50.950;6.988;2023-03-02T15:17:38;16.30;99.90
10692;DHT22;5396;50.950;6.988;2023-03-02T15:20:04;16.50;99.90
10692;DHT22;5396;50.950;6.988;2023-03-02T15:22:31;16.30;99.90
10692;DHT22;5396;50.950;6.988;2023-03-02T15:24:56;16.30;99.90
10692;DHT22;5396;50.950;6.988;2023-03-02T15:27:22;15.80;99.90
10692;DHT22;5396;50.950;6.988;2023-03-02T15:29:48;15.20;99.90
10692;DHT22;5396;50.950;6.988;2023-03-02T15:32:14;14.30;99.90
10692;DHT22;5396;50.950;6.988;2023-03-02T15:34:40;14.10;99.90
10692;DHT22;5396;50.950;6.988;2023-03-02T15:37:07;14.00;99.90
10692;DHT22;5396;50.950;6.988;2023-03-02T15:39:33;13.90;99.90
10692;DHT22;5396;50.950;6.988;2023-03-02T15:41:59;13.60;99.90
10692;DHT22;5396;50.950;6.988;2023-03-02T15:44:25;13.30;99.90
10692;DHT22;5396;50.950;6.988;2023-03-02T15:46:57;13.20;99.90
10692;DHT22;5396;50.950;6.988;2023-03-02T15:49:24;13.00;99.90
10692;DHT22;5396;50.950;6.988;2023-03-02T15:51:54;12.90;99.90
10692;DHT22;5396;50.950;6.988;2023-03-02T15:54:23;12.60;99.90
10692;DHT22;5396;50.950;6.988;2023-03-02T15:56:49;12.70;99.90
10692;DHT22;5396;50.950;6.988;2023-03-02T15:59:26;12.90;99.90
10692;DHT22;5396;50.950;6.988;2023-03-02T16:01:52;12.80;99.90
10692;DHT22;5396;50.950;6.988;2023-03-02T16:04:18;12.70;99.90
10692;DHT22;5396;50.950;6.988;2023-03-02T16:06:44;12.60;99.90
10692;DHT22;5396;50.950;6.988;2023-03-02T16:09:09;12.80;99.90
10692;DHT22;5396;50.950;6.988;2023-03-02T16:11:35;12.90;99.90
10692;DHT22;5396;50.950;6.988;2023-03-02T16:14:01;12.70;99.90
10692;DHT22;5396;50.950;6.988;2023-03-02T16:16:27;12.80;99.90
10692;DHT22;5396;50.950;6.988;2023-03-02T16:18:54;13.20;99.90
10692;DHT22;5396;50.950;6.988;2023-03-02T16:21:21;13.70;99.90
10692;DHT22;5396;50.950;6.988;2023-03-02T16:23:47;14.40;99.90
10692;DHT22;5396;50.950;6.988;2023-03-02T16:26:15;14.90;99.90
10692;DHT22;5396;50.950;6.988;2023-03-02T16:28:42;15.20;99.90
10692;DHT22;5396;50.950;6.988;2023-03-02T16:31:11;15.10;99.90
10692;DHT22;5396;50.950;6.988;2023-03-02T16:33:37;14.90;99.90
10692;DHT22;5396;50.950;6.988;2023-03-02T16:36:03;14.70;99.90
10692;DHT22;5396;50.950;6.988;2023-03-02T16:38:29;14.10;99.90
10692;DHT22;5396;50.950;6.988;2023-03-02T16:40:55;13.10;99.90
10692;DHT22;5396;50.950;6.988;2023-03-02T16:43:20;12.30;99.90
10692;DHT22;5396;50.950;6.988;2023-03-02T16:45:49;11.70;99.90
10692;DHT22;5396;50.950;6.988;2023-03-02T16:48:14;11.20;99.90
10692;DHT22;5396;50.950;6.988;2023-03-02T16:50:40;10.80;99.90
10692;DHT22;5396;50.950;6.988;2023-03-02T16:53:06;10.50;99.90
10692;DHT22;5396;50.950;6.988;2023-03-02T16:55:31;10.30;99.90
10692;DHT22;5396;50.950;6.988;2023-03-02T16:57:57;10.10;99.90
10692;DHT22;5396;50.950;6.988;2023-03-02T17:00:23;10.00;99.90
10692;DHT22;5396;50.950;6.988;2023-03-02T17:02:50;9.90;99.90
10692;DHT22;5396;50.950;6.988;2023-03-02T17:05:17;9.80;99.90
10692;DHT22;5396;50.950;6.988;2023-03-02T17:07:44;9.70;99.90
10692;DHT22;5396;50.950;6.988;2023-03-02T17:10:16;9.60;99.90